createdAt,value
2022-08-27T00:02:10.220Z,99.90
2022-08-27T00:04:38.840Z,99.90
2022-08-27T00:07:06.535Z,99.90
2022-08-27T00:09:34.982Z,99.90
2022-08-27T00:12:02.494Z,99.90
2022-08-27T00:14:30.442Z,99.90
2022-08-27T00:16:59.930Z,99.90
2022-08-27T00:19:29.800Z,99.90
2022-08-27T00:21:59.735Z,99.90
2022-08-27T00:24:27.123Z,99.90
2022-08-27T00:26:54.837Z,99.90
2022-08-27T00:29:26.584Z,99.90
2022-08-27T00:31:57.668Z,99.90
2022-08-27T00:34:24.952Z,99.90
2022-08-27T00:36:53.209Z,99.90
2022-08-27T00:39:21.594Z,99.90
2022-08-27T00:41:51.137Z,99.90
2022-08-27T00:44:18.474Z,99.90
2022-08-27T00:46:54.947Z,99.90
2022-08-27T00:49:33.889Z,99.90
2022-08-27T00:52:26.549Z,99.90
2022-08-27T00:55:03.073Z,99.90
2022-08-27T00:57:30.913Z,99.90
2022-08-27T01:00:00.469Z,99.90
2022-08-27T01:02:30.725Z,99.90
2022-08-27T01:05:07.536Z,99.90
2022-08-27T01:07:39.733Z,99.90
2022-08-27T01:10:12.538Z,99.90
2022-08-27T01:12:40.351Z,99.90
2022-08-27T01:15:11.985Z,99.90
2022-08-27T01:17:44.129Z,99.90
2022-08-27T01:20:17.743Z,99.90
2022-08-27T01:23:14.136Z,99.90
2022-08-27T01:25:44.981Z,99.90
2022-08-27T01:28:13.692Z,99.90
2022-08-27T01:30:43.726Z,99.90
2022-08-27T01:33:19.889Z,99.90
2022-08-27T01:35:51.444Z,99.90
2022-08-27T01:38:31.042Z,99.90
2022-08-27T01:41:00.725Z,99.90
2022-08-27T01:43:31.126Z,99.90
2022-08-27T01:45:58.727Z,99.90
2022-08-27T01:48:28.568Z,99.90
2022-08-27T01:50:58.233Z,99.90
2022-08-27T01:53:28.964Z,99.90
2022-08-27T01:55:59.170Z,99.90
2022-08-27T01:58:30.913Z,99.90
2022-08-27T02:01:03.237Z,99.90
2022-08-27T02:03:36.522Z,99.90
2022-08-27T02:06:09.325Z,99.90
2022-08-27T02:08:39.884Z,99.90
2022-08-27T02:11:13.443Z,99.90
2022-08-27T02:13:40.760Z,99.90
2022-08-27T02:16:09.073Z,99.90
2022-08-27T02:18:38.384Z,99.90
2022-08-27T02:21:09.074Z,99.90
2022-08-27T02:23:36.553Z,99.90
2022-08-27T02:26:08.892Z,99.90
2022-08-27T02:28:38.532Z,99.90
2022-08-27T02:31:05.928Z,99.90
2022-08-27T02:33:36.597Z,99.90
2022-08-27T02:36:04.511Z,99.90
2022-08-27T02:38:35.913Z,99.90
2022-08-27T02:41:03.555Z,99.90
2022-08-27T02:43:31.518Z,99.90
2022-08-27T02:45:58.983Z,99.90
2022-08-27T02:48:26.246Z,99.90
2022-08-27T02:50:54.806Z,99.90
2022-08-27T02:53:22.484Z,99.90
2022-08-27T02:55:52.232Z,99.90
2022-08-27T02:58:19.484Z,99.90
2022-08-27T03:00:49.093Z,99.90
2022-08-27T03:03:16.378Z,99.90
2022-08-27T03:05:43.962Z,99.90
2022-08-27T03:08:11.781Z,99.90
2022-08-27T03:10:40.073Z,99.90
2022-08-27T03:13:09.890Z,99.90
2022-08-27T03:15:37.155Z,99.90
2022-08-27T03:18:18.817Z,99.90
2022-08-27T03:20:52.089Z,99.90
2022-08-27T03:23:25.139Z,99.90
2022-08-27T03:25:57.796Z,99.90
2022-08-27T03:28:28.257Z,99.90
2022-08-27T03:31:03.554Z,99.90
2022-08-27T03:33:40.488Z,99.90
2022-08-27T03:36:12.330Z,99.90
2022-08-27T03:38:41.969Z,99.90
2022-08-27T03:41:11.824Z,99.90
2022-08-27T03:43:43.163Z,99.90
2022-08-27T03:46:11.194Z,99.90
2022-08-27T03:48:38.782Z,99.90
2022-08-27T03:51:08.258Z,99.90
2022-08-27T03:53:38.079Z,99.90
2022-08-27T03:56:10.045Z,99.90
2022-08-27T03:58:41.126Z,99.90
2022-08-27T04:01:08.949Z,99.90
2022-08-27T04:03:39.035Z,99.90
2022-08-27T04:06:10.749Z,99.90
2022-08-27T04:08:37.968Z,99.90
2022-08-27T04:11:07.227Z,99.90
2022-08-27T04:13:34.483Z,99.90
2022-08-27T04:16:01.847Z,99.90
2022-08-27T04:18:30.051Z,99.90
2022-08-27T04:20:57.907Z,99.90
2022-08-27T04:23:25.202Z,99.90
2022-08-27T04:25:52.424Z,99.90
2022-08-27T04:28:22.360Z,99.90
2022-08-27T04:30:50.163Z,99.90
2022-08-27T04:33:18.004Z,99.90
2022-08-27T04:35:45.588Z,99.90
2022-08-27T04:38:13.563Z,99.90
2022-08-27T04:40:59.409Z,99.90
2022-08-27T04:43:28.181Z,99.90
2022-08-27T04:45:55.915Z,99.90
2022-08-27T04:48:25.734Z,99.90
2022-08-27T04:50:53.412Z,99.90
2022-08-27T04:53:21.278Z,99.90
2022-08-27T04:55:56.302Z,99.90
2022-08-27T04:58:27.767Z,99.90
2022-08-27T05:01:00.001Z,99.90
2022-08-27T05:03:28.864Z,99.90
2022-08-27T05:06:03.520Z,99.90
2022-08-27T05:08:34.091Z,99.90
2022-08-27T05:11:02.350Z,99.90
2022-08-27T05:13:29.912Z,99.90
2022-08-27T05:16:05.722Z,99.90
2022-08-27T05:18:38.064Z,99.90
2022-08-27T05:21:21.233Z,99.90
2022-08-27T05:23:49.243Z,99.90
2022-08-27T05:26:19.688Z,99.90
2022-08-27T05:28:48.164Z,99.90
2022-08-27T05:31:19.746Z,99.90
2022-08-27T05:33:50.586Z,99.90
2022-08-27T05:36:22.506Z,99.90
2022-08-27T05:38:53.481Z,99.90
2022-08-27T05:41:34.136Z,99.90
2022-08-27T05:44:24.049Z,99.90
2022-08-27T05:46:53.369Z,99.90
2022-08-27T05:49:23.353Z,99.90
2022-08-27T05:51:53.622Z,99.90
2022-08-27T05:54:20.851Z,99.90
2022-08-27T05:56:51.246Z,99.90
2022-08-27T05:59:37.887Z,99.90
2022-08-27T06:02:06.314Z,99.90
2022-08-27T06:04:33.782Z,99.90
2022-08-27T06:07:01.098Z,99.90
2022-08-27T06:09:29.411Z,99.90
2022-08-27T06:11:58.534Z,99.90
2022-08-27T06:14:28.088Z,99.90
2022-08-27T06:16:55.662Z,99.90
2022-08-27T06:19:23.727Z,99.90
2022-08-27T06:22:00.134Z,99.90
2022-08-27T06:24:29.574Z,99.90
2022-08-27T06:26:59.476Z,99.90
2022-08-27T06:29:26.706Z,99.90
2022-08-27T06:31:56.387Z,99.90
2022-08-27T06:34:23.662Z,99.90
2022-08-27T06:36:53.383Z,99.90
2022-08-27T06:39:23.060Z,99.90
2022-08-27T06:41:50.457Z,99.90
2022-08-27T06:44:17.926Z,99.90
2022-08-27T06:46:45.490Z,99.90
2022-08-27T06:49:15.881Z,99.90
2022-08-27T06:51:47.565Z,99.90
2022-08-27T06:54:16.880Z,99.90
2022-08-27T06:56:48.567Z,99.90
2022-08-27T06:59:20.759Z,99.90
2022-08-27T07:01:51.287Z,99.90
2022-08-27T07:04:22.304Z,99.90
2022-08-27T07:06:55.197Z,99.90
2022-08-27T07:09:24.489Z,99.90
2022-08-27T07:11:51.745Z,99.90
2022-08-27T07:14:19.527Z,99.90
2022-08-27T07:16:52.557Z,99.90
2022-08-27T07:19:21.478Z,99.90
2022-08-27T07:21:50.318Z,99.90
2022-08-27T07:24:19.045Z,99.90
2022-08-27T07:26:48.804Z,99.90
2022-08-27T07:29:18.310Z,99.90
2022-08-27T07:31:45.896Z,99.90
2022-08-27T07:34:15.897Z,99.90
2022-08-27T07:36:43.265Z,99.90
2022-08-27T07:39:16.727Z,99.90
2022-08-27T07:42:05.147Z,99.90
2022-08-27T07:44:34.650Z,99.90
2022-08-27T07:47:05.965Z,99.90
2022-08-27T07:49:35.938Z,99.90
2022-08-27T07:52:04.419Z,99.90
2022-08-27T07:54:32.502Z,99.90
2022-08-27T07:57:00.274Z,99.90
2022-08-27T07:59:28.533Z,99.90
2022-08-27T08:01:57.236Z,99.90
2022-08-27T08:04:26.550Z,99.50
2022-08-27T08:06:55.562Z,97.60
2022-08-27T08:09:24.054Z,96.20
2022-08-27T08:11:52.337Z,93.00
2022-08-27T08:14:20.294Z,94.10
2022-08-27T08:16:48.048Z,92.40
2022-08-27T08:19:15.911Z,90.20
2022-08-27T08:21:46.121Z,90.80
2022-08-27T08:24:13.378Z,88.90
2022-08-27T08:26:41.963Z,87.80
2022-08-27T08:29:12.283Z,85.60
2022-08-27T08:31:46.916Z,83.60
2022-08-27T08:34:19.113Z,83.60
2022-08-27T08:36:53.779Z,84.90
2022-08-27T08:39:24.033Z,84.40
2022-08-27T08:41:58.451Z,86.50
2022-08-27T08:44:36.591Z,84.40
2022-08-27T08:47:30.063Z,81.70
2022-08-27T08:50:16.803Z,81.20
2022-08-27T08:53:05.304Z,78.50
2022-08-27T08:55:58.659Z,78.30
2022-08-27T08:58:49.112Z,80.60
2022-08-27T09:01:21.041Z,80.10
2022-08-27T09:04:03.961Z,78.30
2022-08-27T09:06:31.747Z,78.00
2022-08-27T09:09:13.027Z,80.20
2022-08-27T09:12:05.322Z,79.90
2022-08-27T09:14:38.545Z,80.40
2022-08-27T09:17:10.772Z,81.50
2022-08-27T09:19:39.558Z,82.20
2022-08-27T09:22:22.471Z,82.00
2022-08-27T09:25:00.810Z,82.90
2022-08-27T09:27:31.600Z,84.70
2022-08-27T09:30:09.583Z,83.90
2022-08-27T09:32:37.422Z,85.80
2022-08-27T09:35:11.226Z,87.00
2022-08-27T09:37:50.293Z,87.20
2022-08-27T09:40:32.257Z,87.30
2022-08-27T09:43:30.233Z,88.40
2022-08-27T09:46:01.506Z,88.40
2022-08-27T09:48:37.373Z,89.80
2022-08-27T09:51:15.033Z,90.30
2022-08-27T09:53:53.281Z,86.70
2022-08-27T09:56:33.214Z,84.20
2022-08-27T09:59:24.245Z,84.30
2022-08-27T10:02:02.726Z,85.70
2022-08-27T10:04:38.004Z,90.00
2022-08-27T10:07:35.737Z,89.90
2022-08-27T10:10:21.694Z,84.30
2022-08-27T10:13:19.859Z,81.70
2022-08-27T10:16:11.718Z,83.70
2022-08-27T10:19:07.671Z,78.00
2022-08-27T10:21:49.613Z,75.20
2022-08-27T10:24:38.860Z,77.30
2022-08-27T10:27:27.603Z,81.80
2022-08-27T10:30:04.244Z,81.10
2022-08-27T10:33:11.080Z,81.40
2022-08-27T10:36:18.715Z,83.40
2022-08-27T10:39:25.054Z,86.00
2022-08-27T10:42:26.275Z,87.50
2022-08-27T10:45:24.062Z,84.80
2022-08-27T10:48:24.487Z,83.80
2022-08-27T10:51:13.466Z,81.50
2022-08-27T10:54:10.864Z,78.70
2022-08-27T10:57:03.629Z,75.00
2022-08-27T10:59:54.764Z,77.40
2022-08-27T11:02:24.901Z,76.30
2022-08-27T11:04:58.099Z,76.50
2022-08-27T11:07:34.966Z,75.70
2022-08-27T11:10:14.160Z,76.30
2022-08-27T11:12:49.609Z,78.50
2022-08-27T11:15:37.643Z,77.70
2022-08-27T11:18:18.097Z,77.50
2022-08-27T11:20:57.967Z,75.40
2022-08-27T11:23:39.862Z,75.70
2022-08-27T11:26:10.493Z,73.60
2022-08-27T11:28:39.740Z,74.90
2022-08-27T11:31:22.751Z,75.40
2022-08-27T11:33:54.919Z,75.40
2022-08-27T11:36:57.717Z,78.40
2022-08-27T11:39:41.358Z,79.60
2022-08-27T11:42:31.826Z,81.60
2022-08-27T11:45:17.135Z,82.30
2022-08-27T11:47:59.734Z,82.60
2022-08-27T11:50:29.249Z,83.20
2022-08-27T11:53:06.641Z,84.70
2022-08-27T11:55:38.991Z,86.60
2022-08-27T11:58:27.212Z,88.60
2022-08-27T12:00:55.300Z,87.70
2022-08-27T12:03:32.737Z,87.50
2022-08-27T12:06:17.718Z,87.40
2022-08-27T12:08:45.561Z,87.60
2022-08-27T12:11:40.717Z,87.80
2022-08-27T12:14:32.822Z,87.90
2022-08-27T12:17:28.653Z,86.80
2022-08-27T12:20:25.813Z,86.00
2022-08-27T12:23:22.632Z,86.90
2022-08-27T12:26:13.899Z,87.60
2022-08-27T12:28:44.238Z,87.10
2022-08-27T12:31:11.973Z,88.10
2022-08-27T12:33:46.517Z,87.70
2022-08-27T12:36:27.908Z,87.10
2022-08-27T12:39:03.932Z,84.20
2022-08-27T12:41:44.229Z,86.00
2022-08-27T12:44:15.593Z,85.30
2022-08-27T12:46:49.908Z,86.20
2022-08-27T12:49:38.416Z,84.00
2022-08-27T12:52:43.662Z,82.90
2022-08-27T12:55:21.156Z,82.80
2022-08-27T12:58:26.569Z,83.40
2022-08-27T13:01:06.225Z,82.00
2022-08-27T13:03:48.334Z,84.40
2022-08-27T13:06:29.737Z,84.20
2022-08-27T13:09:01.193Z,85.20
2022-08-27T13:11:32.297Z,83.00
2022-08-27T13:14:12.680Z,82.40
2022-08-27T13:16:55.584Z,84.80
2022-08-27T13:19:28.378Z,83.90
2022-08-27T13:21:56.178Z,82.30
2022-08-27T13:24:36.375Z,80.70
2022-08-27T13:27:06.305Z,80.30
2022-08-27T13:29:36.548Z,80.20
2022-08-27T13:32:05.162Z,82.70
2022-08-27T13:34:39.203Z,81.20
2022-08-27T13:37:26.817Z,83.60
2022-08-27T13:39:56.112Z,85.50
2022-08-27T13:42:27.782Z,84.70
2022-08-27T13:45:03.973Z,88.20
2022-08-27T13:47:40.263Z,85.70
2022-08-27T13:50:17.625Z,86.80
2022-08-27T13:53:03.427Z,85.80
2022-08-27T13:55:31.215Z,85.50
2022-08-27T13:58:11.644Z,87.20
2022-08-27T14:00:41.519Z,86.80
2022-08-27T14:03:32.866Z,87.50
2022-08-27T14:06:00.948Z,86.90
2022-08-27T14:08:35.852Z,87.40
2022-08-27T14:11:07.687Z,87.40
2022-08-27T14:13:45.285Z,87.50
2022-08-27T14:16:25.492Z,87.90
2022-08-27T14:19:02.331Z,88.50
2022-08-27T14:21:33.280Z,88.60
2022-08-27T14:24:03.014Z,89.20
2022-08-27T14:26:30.765Z,89.30
2022-08-27T14:28:58.942Z,90.00
2022-08-27T14:31:26.737Z,90.40
2022-08-27T14:33:54.791Z,90.40
2022-08-27T14:36:23.443Z,89.70
2022-08-27T14:38:53.032Z,90.10
2022-08-27T14:41:24.818Z,90.70
2022-08-27T14:43:52.550Z,90.30
2022-08-27T14:46:28.257Z,90.00
2022-08-27T14:48:58.206Z,90.30
2022-08-27T14:51:29.215Z,90.40
2022-08-27T14:53:59.544Z,91.10
2022-08-27T14:56:30.109Z,90.80
2022-08-27T14:58:57.943Z,90.90
2022-08-27T15:01:27.978Z,90.80
2022-08-27T15:03:59.253Z,91.20
2022-08-27T15:06:29.085Z,90.00
2022-08-27T15:08:59.129Z,90.30
2022-08-27T15:11:33.795Z,90.00
2022-08-27T15:14:04.268Z,90.50
2022-08-27T15:16:38.329Z,90.10
2022-08-27T15:19:08.210Z,90.90
2022-08-27T15:21:40.269Z,91.00
2022-08-27T15:24:22.459Z,90.40
2022-08-27T15:26:51.512Z,90.80
2022-08-27T15:29:23.921Z,91.10
2022-08-27T15:31:54.007Z,90.50
2022-08-27T15:34:23.666Z,90.50
2022-08-27T15:36:53.209Z,90.20
2022-08-27T15:39:20.556Z,90.30
2022-08-27T15:42:05.855Z,90.50
2022-08-27T15:44:39.022Z,90.00
2022-08-27T15:47:06.433Z,90.50
2022-08-27T15:49:34.101Z,90.10
2022-08-27T15:52:01.631Z,90.30
2022-08-27T15:54:31.122Z,90.80
2022-08-27T15:57:00.067Z,90.70
2022-08-27T15:59:28.239Z,90.20
2022-08-27T16:01:55.776Z,88.90
2022-08-27T16:04:26.299Z,88.50
2022-08-27T16:06:55.170Z,89.00
2022-08-27T16:09:25.295Z,88.10
2022-08-27T16:11:57.744Z,88.90
2022-08-27T16:14:24.965Z,89.50
2022-08-27T16:16:52.845Z,90.00
2022-08-27T16:19:25.071Z,89.20
2022-08-27T16:21:53.206Z,89.20
2022-08-27T16:24:21.716Z,89.30
2022-08-27T16:26:49.418Z,89.10
2022-08-27T16:29:16.862Z,88.40
2022-08-27T16:31:44.849Z,88.40
2022-08-27T16:34:26.929Z,88.60
2022-08-27T16:36:54.899Z,87.50
2022-08-27T16:39:23.114Z,88.10
2022-08-27T16:41:53.036Z,88.10
2022-08-27T16:44:20.339Z,88.00
2022-08-27T16:46:48.192Z,87.40
2022-08-27T16:49:33.919Z,87.70
2022-08-27T16:52:01.656Z,87.80
2022-08-27T16:54:29.164Z,85.50
2022-08-27T16:56:56.639Z,86.70
2022-08-27T16:59:26.452Z,87.20
2022-08-27T17:01:57.439Z,85.60
2022-08-27T17:04:32.280Z,86.40
2022-08-27T17:07:05.936Z,85.70
2022-08-27T17:09:34.927Z,85.60
2022-08-27T17:12:02.502Z,86.60
2022-08-27T17:14:33.865Z,86.40
2022-08-27T17:17:04.522Z,86.30
2022-08-27T17:19:34.856Z,88.30
2022-08-27T17:22:05.384Z,88.80
2022-08-27T17:24:33.636Z,88.20
2022-08-27T17:27:00.914Z,87.40
2022-08-27T17:29:29.482Z,88.30
2022-08-27T17:31:57.258Z,87.40
2022-08-27T17:34:27.679Z,88.20
2022-08-27T17:36:55.439Z,88.80
2022-08-27T17:39:28.032Z,88.80
2022-08-27T17:41:56.086Z,88.70
2022-08-27T17:44:31.588Z,88.50
2022-08-27T17:47:04.752Z,88.40
2022-08-27T17:49:32.401Z,89.50
2022-08-27T17:52:09.703Z,89.30
2022-08-27T17:54:44.602Z,89.70
2022-08-27T17:57:20.712Z,89.30
2022-08-27T17:59:51.907Z,89.50
2022-08-27T18:02:33.190Z,89.30
2022-08-27T18:05:01.456Z,88.80
2022-08-27T18:07:29.562Z,90.00
2022-08-27T18:09:57.511Z,90.20
2022-08-27T18:12:29.368Z,89.90
2022-08-27T18:15:23.518Z,89.20
2022-08-27T18:17:54.549Z,89.50
2022-08-27T18:20:29.294Z,89.00
2022-08-27T18:22:57.172Z,89.70
2022-08-27T18:25:27.387Z,89.60
2022-08-27T18:27:57.723Z,90.00
2022-08-27T18:30:26.038Z,89.30
2022-08-27T18:32:56.569Z,90.20
2022-08-27T18:35:27.301Z,90.10
2022-08-27T18:37:54.890Z,90.30
2022-08-27T18:40:25.720Z,90.20
2022-08-27T18:42:56.348Z,90.00
2022-08-27T18:45:28.531Z,90.10
2022-08-27T18:47:58.264Z,90.10
2022-08-27T18:50:30.037Z,89.90
2022-08-27T18:52:57.638Z,89.90
2022-08-27T18:55:28.217Z,89.30
2022-08-27T18:57:57.767Z,90.20
2022-08-27T19:00:25.619Z,90.30
2022-08-27T19:02:53.534Z,90.30
2022-08-27T19:05:28.682Z,90.10
2022-08-27T19:07:58.366Z,90.30
2022-08-27T19:10:26.240Z,90.30
2022-08-27T19:12:56.066Z,90.40
2022-08-27T19:15:23.865Z,90.60
2022-08-27T19:17:55.938Z,90.30
2022-08-27T19:20:23.670Z,90.50
2022-08-27T19:22:50.977Z,90.30
2022-08-27T19:25:18.568Z,90.00
2022-08-27T19:27:49.270Z,89.80
2022-08-27T19:30:17.608Z,90.10
2022-08-27T19:32:45.681Z,90.10
2022-08-27T19:35:15.236Z,90.30
2022-08-27T19:37:57.470Z,90.50
2022-08-27T19:40:26.079Z,90.60
2022-08-27T19:42:53.547Z,90.60
2022-08-27T19:57:24.088Z,90.20
2022-08-27T19:59:53.969Z,91.10
2022-08-27T20:02:21.854Z,90.90
2022-08-27T20:05:14.312Z,90.80
2022-08-27T20:07:38.961Z,90.80
2022-08-27T20:10:08.478Z,90.80
2022-08-27T20:12:37.145Z,90.60
2022-08-27T20:15:06.416Z,90.70
2022-08-27T20:17:35.868Z,90.70
2022-08-27T20:20:04.426Z,91.00
2022-08-27T20:22:31.871Z,91.10
2022-08-27T20:25:01.358Z,91.30
2022-08-27T20:27:29.147Z,91.50
2022-08-27T20:29:58.786Z,91.60
2022-08-27T20:32:29.989Z,91.60
2022-08-27T20:34:58.939Z,91.30
2022-08-27T20:37:29.056Z,91.90
2022-08-27T20:52:59.530Z,91.50
2022-08-27T20:55:29.950Z,92.90
2022-08-27T20:58:15.560Z,92.30
2022-08-27T21:00:45.834Z,92.50
2022-08-27T21:03:15.688Z,92.60
2022-08-27T21:05:48.336Z,92.70
2022-08-27T21:08:18.115Z,92.80
2022-08-27T21:10:58.320Z,92.80
2022-08-27T21:13:28.655Z,93.00
2022-08-27T21:15:56.873Z,93.30
2022-08-27T21:18:29.565Z,93.40
2022-08-27T21:21:04.806Z,93.60
2022-08-27T21:23:34.259Z,93.30
2022-08-27T21:26:07.955Z,93.60
2022-08-27T21:28:35.506Z,93.60
2022-08-27T21:31:06.366Z,93.70
2022-08-27T21:33:39.510Z,93.70
2022-08-27T21:36:12.124Z,94.20
2022-08-27T21:38:40.861Z,94.00
2022-08-27T21:41:11.611Z,94.00
2022-08-27T21:43:41.471Z,94.40
2022-08-27T21:46:11.606Z,95.10
2022-08-27T21:48:42.465Z,95.20
2022-08-27T21:51:11.822Z,95.20
2022-08-27T21:53:44.989Z,95.00
2022-08-27T21:56:14.966Z,95.30
2022-08-27T21:58:44.412Z,94.70
2022-08-27T22:01:12.377Z,94.50
2022-08-27T22:03:46.908Z,94.30
2022-08-27T22:06:16.061Z,94.00
2022-08-27T22:08:43.706Z,94.10
2022-08-27T22:11:11.954Z,94.40
2022-08-27T22:13:40.168Z,94.90
2022-08-27T22:16:08.005Z,95.60
2022-08-27T22:18:35.344Z,95.90
2022-08-27T22:21:06.655Z,95.80
2022-08-27T22:23:36.795Z,95.30
2022-08-27T22:26:04.402Z,95.20
2022-08-27T22:28:31.777Z,95.20
2022-08-27T22:30:59.109Z,95.40
2022-08-27T22:33:26.363Z,95.70
2022-08-27T22:35:54.133Z,95.30
2022-08-27T22:38:23.968Z,95.20
2022-08-27T22:40:53.265Z,94.90
2022-08-27T22:43:20.739Z,95.00
2022-08-27T22:45:47.932Z,94.70
2022-08-27T22:48:15.162Z,95.30
2022-08-27T22:50:42.951Z,95.10
2022-08-27T22:53:13.110Z,95.50
2022-08-27T22:55:46.760Z,95.70
2022-08-27T22:58:19.244Z,95.40
2022-08-27T23:00:54.779Z,95.10
2022-08-27T23:03:22.480Z,95.10
2022-08-27T23:05:49.874Z,95.20
2022-08-27T23:08:19.931Z,95.20
2022-08-27T23:10:49.613Z,95.10
2022-08-27T23:13:16.878Z,95.20
2022-08-27T23:15:44.712Z,95.10
2022-08-27T23:18:16.711Z,95.80
2022-08-27T23:20:46.445Z,95.10
2022-08-27T23:23:14.171Z,95.20
2022-08-27T23:26:00.081Z,95.20
2022-08-27T23:28:30.383Z,95.20
2022-08-27T23:31:00.061Z,94.80
2022-08-27T23:33:27.353Z,94.90
2022-08-27T23:36:00.029Z,95.10
2022-08-27T23:38:27.276Z,94.90
2022-08-27T23:40:54.536Z,95.60
2022-08-27T23:43:22.468Z,95.50
2022-08-27T23:45:50.282Z,95.50
2022-08-27T23:48:20.009Z,95.20
2022-08-27T23:50:47.396Z,95.00
2022-08-27T23:53:14.715Z,95.50
2022-08-27T23:55:41.985Z,95.80
2022-08-27T23:58:12.577Z,95.30
